createdAt,value
2019-02-17T00:00:44.421Z,101821.02
2019-02-17T00:03:14.157Z,101824.50
2019-02-17T00:05:43.942Z,101817.23
2019-02-17T00:08:13.679Z,101816.63
2019-02-17T00:10:43.437Z,101820.06
2019-02-17T00:13:13.204Z,101821.41
2019-02-17T00:15:42.998Z,101816.06
2019-02-17T00:18:12.954Z,101819.45
2019-02-17T00:20:42.678Z,101818.00
2019-02-17T00:23:12.439Z,101824.03
2019-02-17T00:25:42.209Z,101822.73
2019-02-17T00:28:11.931Z,101824.08
2019-02-17T00:30:41.713Z,101821.48
2019-02-17T00:33:11.443Z,101820.55
2019-02-17T00:35:41.206Z,101817.01
2019-02-17T00:38:10.965Z,101813.95
2019-02-17T00:40:40.896Z,101819.14
2019-02-17T00:43:10.679Z,101821.19
2019-02-17T00:45:40.404Z,101818.16
2019-02-17T00:48:10.164Z,101823.78
2019-02-17T00:50:39.913Z,101822.07
2019-02-17T00:53:09.634Z,101818.57
2019-02-17T00:55:39.385Z,101822.43
2019-02-17T00:58:09.145Z,101816.34
2019-02-17T01:00:38.903Z,101816.86
2019-02-17T01:03:08.560Z,101812.44
2019-02-17T01:05:38.339Z,101816.86
2019-02-17T01:08:08.581Z,101816.55
2019-02-17T01:10:38.368Z,101816.55
2019-02-17T01:13:08.092Z,101818.32
2019-02-17T01:15:37.870Z,101820.45
2019-02-17T01:18:07.585Z,101818.78
2019-02-17T01:20:37.331Z,101816.91
2019-02-17T01:23:07.096Z,101814.62
2019-02-17T01:25:36.805Z,101812.44
2019-02-17T01:28:06.594Z,101814.09
2019-02-17T01:30:36.398Z,101814.20
2019-02-17T01:33:06.158Z,101814.67
2019-02-17T01:35:35.913Z,101817.59
2019-02-17T01:38:05.683Z,101818.94
2019-02-17T01:40:35.445Z,101817.17
2019-02-17T01:43:05.197Z,101824.61
2019-02-17T01:45:34.956Z,101822.95
2019-02-17T01:48:04.677Z,101828.81
2019-02-17T01:50:34.394Z,101826.17
2019-02-17T01:53:04.113Z,101824.08
2019-02-17T01:55:33.895Z,101824.97
2019-02-17T01:58:03.627Z,101831.00
2019-02-17T02:00:33.368Z,101832.26
2019-02-17T02:03:03.127Z,101833.41
2019-02-17T02:05:32.838Z,101838.23
2019-02-17T02:08:02.622Z,101830.86
2019-02-17T02:10:32.336Z,101832.94
2019-02-17T02:13:02.088Z,101832.89
2019-02-17T02:15:31.840Z,101827.26
2019-02-17T02:18:01.560Z,101835.02
2019-02-17T02:20:31.414Z,101838.39
2019-02-17T02:23:01.142Z,101843.14
2019-02-17T02:25:31.228Z,101835.19
2019-02-17T02:28:00.953Z,101838.56
2019-02-17T02:30:30.703Z,101837.20
2019-02-17T02:33:00.529Z,101831.84
2019-02-17T02:35:30.249Z,101835.59
2019-02-17T02:38:00.124Z,101835.01
2019-02-17T02:40:29.847Z,101832.34
2019-02-17T02:42:59.622Z,101837.95
2019-02-17T02:45:29.339Z,101843.92
2019-02-17T02:47:59.314Z,101849.91
2019-02-17T02:50:29.031Z,101847.66
2019-02-17T02:52:58.769Z,101849.69
2019-02-17T02:55:28.526Z,101843.59
2019-02-17T02:57:58.253Z,101848.27
2019-02-17T03:00:28.085Z,101853.42
2019-02-17T03:02:57.822Z,101852.05
2019-02-17T03:05:27.725Z,101852.88
2019-02-17T03:07:57.420Z,101851.05
2019-02-17T03:10:27.162Z,101852.66
2019-02-17T03:12:56.913Z,101847.46
2019-02-17T03:15:26.700Z,101851.23
2019-02-17T03:17:57.152Z,101853.42
2019-02-17T03:20:27.285Z,101854.77
2019-02-17T03:22:57.046Z,101852.47
2019-02-17T03:25:26.827Z,101858.96
2019-02-17T03:27:56.579Z,101858.49
2019-02-17T03:30:26.339Z,101866.28
2019-02-17T03:32:56.094Z,101863.15
2019-02-17T03:35:25.740Z,101865.35
2019-02-17T03:37:55.519Z,101872.42
2019-02-17T03:40:25.235Z,101878.34
2019-02-17T03:42:54.990Z,101877.98
2019-02-17T03:45:24.742Z,101869.23
2019-02-17T03:47:54.458Z,101870.37
2019-02-17T03:50:24.336Z,101876.16
2019-02-17T03:52:54.053Z,101871.38
2019-02-17T03:55:23.843Z,101879.64
2019-02-17T03:57:53.594Z,101879.64
2019-02-17T04:00:23.354Z,101879.70
2019-02-17T04:02:53.115Z,101879.75
2019-02-17T04:05:22.838Z,101886.97
2019-02-17T04:07:52.912Z,101887.42
2019-02-17T04:10:22.624Z,101892.56
2019-02-17T04:12:52.404Z,101880.40
2019-02-17T04:15:22.125Z,101890.02
2019-02-17T04:17:51.883Z,101886.78
2019-02-17T04:20:21.654Z,101875.38
2019-02-17T04:22:51.453Z,101881.52
2019-02-17T04:25:21.210Z,101874.84
2019-02-17T04:27:50.989Z,101880.99
2019-02-17T04:30:28.682Z,101885.16
2019-02-17T04:32:52.159Z,101881.51
2019-02-17T04:35:21.945Z,101890.16
2019-02-17T04:37:51.592Z,101895.39
2019-02-17T04:40:21.375Z,101880.52
2019-02-17T04:42:51.101Z,101882.70
2019-02-17T04:45:20.862Z,101880.87
2019-02-17T04:47:50.636Z,101885.23
2019-02-17T04:50:20.351Z,101879.58
2019-02-17T04:52:50.139Z,101883.47
2019-02-17T04:55:19.970Z,101882.64
2019-02-17T04:57:49.652Z,101877.50
2019-02-17T05:00:19.411Z,101885.70
2019-02-17T05:02:49.127Z,101886.01
2019-02-17T05:05:18.904Z,101882.58
2019-02-17T05:07:48.622Z,101889.43
2019-02-17T05:10:18.367Z,101894.48
2019-02-17T05:12:48.127Z,101891.42
2019-02-17T05:15:17.845Z,101884.85
2019-02-17T05:17:47.614Z,101889.57
2019-02-17T05:20:17.289Z,101889.49
2019-02-17T05:22:47.078Z,101893.27
2019-02-17T05:25:16.784Z,101891.48
2019-02-17T05:27:46.533Z,101896.97
2019-02-17T05:30:16.282Z,101891.28
2019-02-17T05:32:46.067Z,101902.52
2019-02-17T05:35:15.748Z,101896.83
2019-02-17T05:37:45.503Z,101899.30
2019-02-17T05:40:15.193Z,101904.82
2019-02-17T05:42:44.915Z,101898.96
2019-02-17T05:45:14.705Z,101901.14
2019-02-17T05:47:44.422Z,101901.09
2019-02-17T05:50:14.297Z,101894.24
2019-02-17T05:52:44.128Z,101912.34
2019-02-17T05:55:14.697Z,101909.75
2019-02-17T05:57:44.478Z,101918.42
2019-02-17T06:00:15.146Z,101920.92
2019-02-17T06:02:44.902Z,101924.41
2019-02-17T06:05:14.694Z,101927.41
2019-02-17T06:07:44.460Z,101926.06
2019-02-17T06:10:14.345Z,101925.53
2019-02-17T06:12:44.083Z,101932.07
2019-02-17T06:15:13.839Z,101932.45
2019-02-17T06:17:43.617Z,101933.98
2019-02-17T06:20:13.330Z,101939.44
2019-02-17T06:22:43.164Z,101943.87
2019-02-17T06:25:12.892Z,101950.14
2019-02-17T06:27:42.844Z,101945.87
2019-02-17T06:30:12.562Z,101956.30
2019-02-17T06:32:42.340Z,101949.82
2019-02-17T06:35:12.067Z,101950.85
2019-02-17T06:37:41.834Z,101942.25
2019-02-17T06:40:11.590Z,101948.11
2019-02-17T06:42:41.311Z,101946.61
2019-02-17T06:45:11.094Z,101954.53
2019-02-17T06:47:40.814Z,101948.25
2019-02-17T06:50:11.223Z,101942.98
2019-02-17T06:52:40.945Z,101945.23
2019-02-17T06:55:15.416Z,101942.55
2019-02-17T06:57:45.072Z,101950.77
2019-02-17T07:00:16.418Z,101957.12
2019-02-17T07:02:46.163Z,101955.28
2019-02-17T07:05:19.960Z,101964.23
2019-02-17T07:07:49.694Z,101957.55
2019-02-17T07:10:19.459Z,101962.09
2019-02-17T07:12:49.178Z,101965.78
2019-02-17T07:15:18.957Z,101968.19
2019-02-17T07:17:48.684Z,101971.09
2019-02-17T07:20:18.444Z,101967.95
2019-02-17T07:22:48.206Z,101973.86
2019-02-17T07:25:17.984Z,101974.14
2019-02-17T07:27:47.738Z,101968.73
2019-02-17T07:30:17.496Z,101970.82
2019-02-17T07:32:47.257Z,101974.05
2019-02-17T07:35:16.987Z,101972.59
2019-02-17T07:37:46.765Z,101966.19
2019-02-17T07:40:16.486Z,101973.33
2019-02-17T07:42:46.260Z,101974.94
2019-02-17T07:45:15.977Z,101977.78
2019-02-17T07:47:45.674Z,101973.56
2019-02-17T07:50:15.416Z,101984.27
2019-02-17T07:52:45.196Z,101981.85
2019-02-17T07:55:14.889Z,101979.81
2019-02-17T07:57:44.640Z,101981.30
2019-02-17T08:00:14.397Z,101975.90
2019-02-17T08:02:44.051Z,101972.20
2019-02-17T08:05:13.818Z,101974.02
2019-02-17T08:07:43.532Z,101972.47
2019-02-17T08:10:13.299Z,101980.59
2019-02-17T08:12:43.024Z,101975.63
2019-02-17T08:15:12.742Z,101977.39
2019-02-17T08:17:42.462Z,101976.37
2019-02-17T08:20:12.108Z,101970.39
2019-02-17T08:22:41.884Z,101964.74
2019-02-17T08:25:19.359Z,101970.62
2019-02-17T08:27:43.022Z,101965.52
2019-02-17T08:30:13.736Z,101963.40
2019-02-17T08:32:44.196Z,101970.92
2019-02-17T08:35:14.124Z,101968.95
2019-02-17T08:37:44.038Z,101959.49
2019-02-17T08:40:13.787Z,101962.28
2019-02-17T08:42:43.594Z,101958.03
2019-02-17T08:45:13.355Z,101963.78
2019-02-17T08:47:43.102Z,101961.77
2019-02-17T08:50:12.848Z,101957.41
2019-02-17T08:52:42.636Z,101954.89
2019-02-17T08:55:12.427Z,101950.61
2019-02-17T08:57:42.139Z,101956.00
2019-02-17T09:00:13.885Z,101953.44
2019-02-17T09:02:43.652Z,101953.05
2019-02-17T09:05:13.416Z,101944.89
2019-02-17T09:07:43.174Z,101952.37
2019-02-17T09:10:13.490Z,101950.72
2019-02-17T09:12:43.169Z,101950.34
2019-02-17T09:15:12.946Z,101947.44
2019-02-17T09:17:42.699Z,101954.91
2019-02-17T09:20:12.375Z,101958.13
2019-02-17T09:22:42.126Z,101949.89
2019-02-17T09:25:12.241Z,101957.44
2019-02-17T09:27:42.316Z,101958.44
2019-02-17T09:30:16.724Z,101953.78
2019-02-17T09:32:46.501Z,101952.06
2019-02-17T09:35:16.158Z,101958.70
2019-02-17T09:37:45.934Z,101961.80
2019-02-17T09:40:15.648Z,101962.28
2019-02-17T09:42:45.324Z,101961.02
2019-02-17T09:45:15.987Z,101965.88
2019-02-17T09:47:45.633Z,101972.54
2019-02-17T09:50:15.510Z,101968.30
2019-02-17T09:52:45.220Z,101963.50
2019-02-17T09:55:15.002Z,101971.84
2019-02-17T09:57:44.717Z,101971.02
2019-02-17T10:00:17.493Z,101968.45
2019-02-17T10:02:47.212Z,101969.81
2019-02-17T10:05:16.988Z,101969.86
2019-02-17T10:07:46.723Z,101969.05
2019-02-17T10:10:18.400Z,101971.30
2019-02-17T10:12:48.112Z,101967.41
2019-02-17T10:15:18.171Z,101961.77
2019-02-17T10:17:47.890Z,101963.17
2019-02-17T10:20:17.575Z,101962.50
2019-02-17T10:22:47.404Z,101954.17
2019-02-17T10:25:17.180Z,101958.13
2019-02-17T10:27:46.933Z,101954.32
2019-02-17T10:30:19.014Z,101959.63
2019-02-17T10:32:48.971Z,101953.47
2019-02-17T10:35:18.767Z,101962.23
2019-02-17T10:37:48.508Z,101953.44
2019-02-17T10:40:23.145Z,101958.27
2019-02-17T10:42:52.667Z,101955.64
2019-02-17T10:45:22.437Z,101941.63
2019-02-17T10:47:52.186Z,101941.19
2019-02-17T10:50:21.870Z,101947.77
2019-02-17T10:52:51.623Z,101942.52
2019-02-17T10:55:21.344Z,101944.70
2019-02-17T10:57:51.120Z,101945.59
2019-02-17T11:00:22.434Z,101942.95
2019-02-17T11:02:52.215Z,101933.77
2019-02-17T11:05:21.883Z,101932.02
2019-02-17T11:07:51.636Z,101931.14
2019-02-17T11:10:21.393Z,101928.48
2019-02-17T11:12:51.174Z,101923.22
2019-02-17T11:15:21.238Z,101924.55
2019-02-17T11:17:50.912Z,101921.91
2019-02-17T11:20:20.672Z,101922.78
2019-02-17T11:22:50.465Z,101913.12
2019-02-17T11:25:20.250Z,101909.16
2019-02-17T11:27:49.897Z,101904.34
2019-02-17T11:30:21.183Z,101907.83
2019-02-17T11:32:57.992Z,101913.56
2019-02-17T11:35:22.386Z,101910.91
2019-02-17T11:37:52.105Z,101910.02
2019-02-17T11:40:21.801Z,101907.36
2019-02-17T11:42:51.545Z,101907.36
2019-02-17T11:45:21.329Z,101908.65
2019-02-17T11:47:51.091Z,101913.02
2019-02-17T11:50:20.775Z,101908.60
2019-02-17T11:52:50.724Z,101903.34
2019-02-17T11:55:22.675Z,101896.30
2019-02-17T11:57:51.944Z,101900.24
2019-02-17T12:00:22.662Z,101900.66
2019-02-17T12:02:52.376Z,101901.53
2019-02-17T12:05:22.099Z,101902.38
2019-02-17T12:07:54.625Z,101902.78
2019-02-17T12:10:24.338Z,101901.44
2019-02-17T12:12:55.604Z,101898.36
2019-02-17T12:15:25.337Z,101898.33
2019-02-17T12:17:55.089Z,101897.02
2019-02-17T12:20:41.760Z,101897.02
2019-02-17T12:23:13.028Z,101889.52
2019-02-17T12:25:47.094Z,101881.61
2019-02-17T12:28:40.301Z,101888.19
2019-02-17T12:31:13.832Z,101880.69
2019-02-17T12:40:20.989Z,101881.88
2019-02-17T12:43:02.256Z,101881.84
2019-02-17T12:45:33.803Z,101876.21
2019-02-17T12:50:52.528Z,101872.22
2019-02-17T12:51:31.495Z,101871.34
2019-02-17T12:53:28.908Z,101863.47
2019-02-17T12:58:48.869Z,101859.52
2019-02-17T13:01:23.669Z,101861.72
2019-02-17T13:03:57.934Z,101854.66
2019-02-17T13:06:36.531Z,101857.33
2019-02-17T13:11:53.061Z,101860.40
2019-02-17T13:14:25.719Z,101853.81
2019-02-17T13:19:58.083Z,101848.98
2019-02-17T13:25:17.610Z,101839.31
2019-02-17T13:34:10.521Z,101835.27
2019-02-17T13:36:46.206Z,101834.44
2019-02-17T13:42:17.051Z,101833.12
2019-02-17T13:44:50.524Z,101834.44
2019-02-17T13:50:54.933Z,101831.41
2019-02-17T13:53:27.130Z,101822.62
2019-02-17T13:55:58.331Z,101822.22
2019-02-17T13:58:30.812Z,101823.11
2019-02-17T14:04:03.887Z,101817.00
2019-02-17T14:09:51.501Z,101821.39
2019-02-17T14:12:23.199Z,101817.01
2019-02-17T14:14:55.483Z,101823.19
2019-02-17T14:17:31.728Z,101820.11
2019-02-17T14:20:10.725Z,101820.12
2019-02-17T14:22:53.463Z,101815.28
2019-02-17T14:25:28.666Z,101816.60
2019-02-17T14:28:00.645Z,101818.76
2019-02-17T14:30:33.980Z,101818.80
2019-02-17T14:33:05.098Z,101813.97
2019-02-17T14:38:50.129Z,101809.14
2019-02-17T14:41:27.553Z,101803.88
2019-02-17T14:43:59.996Z,101810.02
2019-02-17T14:46:31.191Z,101809.58
2019-02-17T14:49:02.622Z,101808.27
2019-02-17T14:51:33.771Z,101811.34
2019-02-17T14:54:06.719Z,101810.45
2019-02-17T14:56:38.441Z,101799.08
2019-02-17T14:59:10.409Z,101799.96
2019-02-17T15:01:41.293Z,101805.71
2019-02-17T15:04:11.633Z,101798.69
2019-02-17T15:06:42.471Z,101800.48
2019-02-17T15:09:13.231Z,101799.17
2019-02-17T15:11:44.333Z,101800.56
2019-02-17T15:14:15.572Z,101801.88
2019-02-17T15:16:45.694Z,101796.66
2019-02-17T15:19:16.692Z,101798.44
2019-02-17T15:21:47.901Z,101800.20
2019-02-17T15:24:19.371Z,101795.84
2019-02-17T15:26:49.993Z,101788.41
2019-02-17T15:29:21.373Z,101794.59
2019-02-17T15:31:52.050Z,101791.11
2019-02-17T15:34:22.045Z,101794.21
2019-02-17T15:36:55.839Z,101788.51
2019-02-17T15:39:26.258Z,101785.47
2019-02-17T15:42:02.631Z,101787.65
2019-02-17T15:44:32.635Z,101791.19
2019-02-17T15:47:02.434Z,101791.19
2019-02-17T15:49:34.625Z,101789.92
2019-02-17T15:52:04.702Z,101789.55
2019-02-17T15:54:35.870Z,101789.56
2019-02-17T15:57:12.217Z,101785.64
2019-02-17T15:59:45.942Z,101789.19
2019-02-17T16:02:19.471Z,101787.00
2019-02-17T16:04:58.153Z,101787.45
2019-02-17T16:11:04.171Z,101780.02
2019-02-17T16:13:42.196Z,101788.33
2019-02-17T16:14:32.219Z,101788.77
2019-02-17T16:16:13.845Z,101785.27
2019-02-17T16:18:57.310Z,101788.75
2019-02-17T16:21:32.375Z,101785.68
2019-02-17T16:24:06.565Z,101798.81
2019-02-17T16:26:37.895Z,101791.37
2019-02-17T16:29:11.198Z,101795.29
2019-02-17T16:31:44.594Z,101792.64
2019-02-17T16:34:15.430Z,101800.06
2019-02-17T16:36:47.577Z,101799.60
2019-02-17T16:39:19.128Z,101802.59
2019-02-17T16:41:54.247Z,101799.07
2019-02-17T16:44:29.235Z,101798.14
2019-02-17T16:47:01.530Z,101805.08
2019-02-17T16:49:33.269Z,101807.69
2019-02-17T16:52:06.233Z,101807.64
2019-02-17T16:54:36.319Z,101805.86
2019-02-17T16:57:06.782Z,101804.52
2019-02-17T16:59:37.955Z,101808.39
2019-02-17T17:02:08.436Z,101809.66
2019-02-17T17:04:48.148Z,101810.05
2019-02-17T17:07:11.882Z,101814.38
2019-02-17T17:09:41.697Z,101815.22
2019-02-17T17:12:11.703Z,101816.48
2019-02-17T17:14:41.935Z,101816.89
2019-02-17T17:17:11.925Z,101812.01
2019-02-17T17:19:42.543Z,101822.88
2019-02-17T17:22:15.033Z,101821.52
2019-02-17T17:24:47.123Z,101818.88
2019-02-17T17:27:18.382Z,101816.23
2019-02-17T17:29:52.369Z,101813.10
2019-02-17T17:32:23.332Z,101810.02
2019-02-17T17:34:58.892Z,101815.22
2019-02-17T17:37:28.268Z,101810.80
2019-02-17T17:39:58.350Z,101808.14
2019-02-17T17:42:28.640Z,101805.47
2019-02-17T17:45:00.368Z,101805.84
2019-02-17T17:47:36.197Z,101804.91
2019-02-17T17:50:09.231Z,101808.80
2019-02-17T17:52:42.182Z,101804.80
2019-02-17T17:55:21.769Z,101803.77
2019-02-17T17:57:52.861Z,101802.81
2019-02-17T18:00:26.190Z,101804.09
2019-02-17T18:03:06.140Z,101807.14
2019-02-17T18:05:37.033Z,101806.19
2019-02-17T18:08:15.354Z,101804.88
2019-02-17T18:10:45.843Z,101806.98
2019-02-17T18:13:24.288Z,101803.42
2019-02-17T18:15:54.869Z,101796.81
2019-02-17T18:18:33.092Z,101798.11
2019-02-17T18:21:03.739Z,101796.72
2019-02-17T18:23:41.300Z,101797.10
2019-02-17T18:26:15.185Z,101798.72
2019-02-17T18:31:33.435Z,101795.11
2019-02-17T18:34:03.750Z,101792.44
2019-02-17T18:36:35.363Z,101802.44
2019-02-17T18:39:07.071Z,101801.50
2019-02-17T18:41:41.074Z,101805.36
2019-02-17T18:44:11.277Z,101806.16
2019-02-17T18:46:41.373Z,101804.69
2019-02-17T18:49:11.142Z,101809.00
2019-02-17T18:51:41.854Z,101807.60
2019-02-17T18:54:11.749Z,101807.70
2019-02-17T18:56:41.478Z,101798.92
2019-02-17T18:59:12.896Z,101800.03
2019-02-17T19:01:43.125Z,101797.78
2019-02-17T19:04:13.318Z,101797.75
2019-02-17T19:07:07.199Z,101799.41
2019-02-17T19:13:17.455Z,101797.13
2019-02-17T19:15:53.832Z,101790.49
2019-02-17T19:23:24.421Z,101800.86
2019-02-17T19:24:27.162Z,101795.89
2019-02-17T19:27:06.955Z,101800.08
2019-02-17T19:32:57.782Z,101796.94
2019-02-17T19:36:18.725Z,101796.17
2019-02-17T19:38:49.028Z,101790.45
2019-02-17T19:41:19.394Z,101795.64
2019-02-17T19:43:49.559Z,101795.09
2019-02-17T19:46:22.739Z,101796.94
2019-02-17T19:52:50.587Z,101800.66
2019-02-17T19:55:30.818Z,101796.98
2019-02-17T19:58:01.559Z,101799.02
2019-02-17T20:00:33.182Z,101798.85
2019-02-17T20:03:07.508Z,101797.25
2019-02-17T20:09:01.034Z,101803.91
2019-02-17T20:11:31.599Z,101813.63
2019-02-17T20:14:03.194Z,101809.08
2019-02-17T20:16:34.188Z,101808.48
2019-02-17T20:19:07.263Z,101814.11
2019-02-17T20:21:39.925Z,101803.60
2019-02-17T20:24:19.763Z,101810.53
2019-02-17T20:30:18.908Z,101810.20
2019-02-17T20:40:21.948Z,101806.41
2019-02-17T20:42:59.407Z,101801.02
2019-02-17T20:46:01.661Z,101792.66
2019-02-17T20:52:01.337Z,101798.15
2019-02-17T20:52:17.841Z,101795.55
2019-02-17T20:58:07.470Z,101794.69
2019-02-17T21:00:39.227Z,101795.68
2019-02-17T21:03:19.045Z,101797.44
2019-02-17T21:06:25.149Z,101798.52
2019-02-17T21:09:00.628Z,101796.83
2019-02-17T21:12:34.633Z,101796.75
2019-02-17T21:14:29.222Z,101794.79
2019-02-17T21:20:34.372Z,101798.00
2019-02-17T21:26:05.968Z,101786.66
2019-02-17T21:28:36.162Z,101786.14
2019-02-17T21:31:07.839Z,101785.49
2019-02-17T21:33:40.782Z,101793.56
2019-02-17T21:36:22.597Z,101789.09
2019-02-17T21:38:52.843Z,101792.87
2019-02-17T21:41:22.858Z,101794.91
2019-02-17T21:43:52.823Z,101797.59
2019-02-17T21:46:23.128Z,101796.20
2019-02-17T21:48:52.953Z,101793.13
2019-02-17T21:51:27.263Z,101786.16
2019-02-17T21:53:57.174Z,101789.23
2019-02-17T21:56:36.366Z,101788.66
2019-02-17T21:59:07.655Z,101795.68
2019-02-17T22:07:47.056Z,101798.95
2019-02-17T22:10:20.482Z,101793.23
2019-02-17T22:12:51.460Z,101794.38
2019-02-17T22:15:22.777Z,101792.24
2019-02-17T22:17:52.571Z,101786.20
2019-02-17T22:20:22.227Z,101779.55
2019-02-17T22:22:52.013Z,101783.87
2019-02-17T22:25:21.740Z,101785.08
2019-02-17T22:27:51.516Z,101791.48
2019-02-17T22:30:21.279Z,101798.34
2019-02-17T22:32:51.005Z,101800.52
2019-02-17T22:35:20.700Z,101797.41
2019-02-17T22:37:50.454Z,101794.30
2019-02-17T22:40:20.409Z,101802.03
2019-02-17T22:42:50.060Z,101796.21
2019-02-17T22:45:19.829Z,101795.64
2019-02-17T22:47:49.553Z,101793.34
2019-02-17T22:50:19.305Z,101790.95
2019-02-17T22:52:49.032Z,101788.41
2019-02-17T22:55:18.818Z,101782.73
2019-02-17T22:57:48.546Z,101779.83
2019-02-17T23:00:28.717Z,101777.47
2019-02-17T23:02:58.449Z,101779.55
2019-02-17T23:05:28.144Z,101778.19
2019-02-17T23:07:57.870Z,101791.91
2019-02-17T23:10:27.655Z,101793.05
2019-02-17T23:12:57.317Z,101792.05
2019-02-17T23:15:27.041Z,101787.44
2019-02-17T23:17:56.772Z,101790.25
2019-02-17T23:20:26.528Z,101789.45
2019-02-17T23:22:56.319Z,101794.73
2019-02-17T23:25:26.020Z,101792.53
2019-02-17T23:27:55.716Z,101797.27
2019-02-17T23:30:25.371Z,101803.95
2019-02-17T23:32:55.139Z,101793.97
2019-02-17T23:35:24.858Z,101796.03
2019-02-17T23:37:54.611Z,101792.55
2019-02-17T23:40:24.268Z,101793.91
2019-02-17T23:42:54.027Z,101787.11
2019-02-17T23:45:23.742Z,101789.53
2019-02-17T23:47:53.504Z,101789.60
2019-02-17T23:50:23.231Z,101789.60
2019-02-17T23:52:54.656Z,101777.91
2019-02-17T23:55:24.646Z,101775.42
2019-02-17T23:57:54.442Z,101764.27
